Time;durP1;ratioP1;P1;durP2;ratioP2;P2;SDS_P1;SDS_P2;PMS_P1;PMS_P2;Temp;Humidity;BMP_temperature;BMP_pressure;BME280_temperature;BME280_humidity;BME280_pressure;Samples;Min_cycle;Max_cycle;Signal;HPM_P1;HPM_P2
2021/11/19 00:01:18;;;;;;;16.80;9.43;;;;;;;;;;4980575;28;20190;-49
2021/11/19 00:03:44;;;;;;;14.93;9.43;;;;;;;;;;4985722;28;20182;-49
2021/11/19 00:06:11;;;;;;;14.07;9.93;;;;;;;;;;4991763;28;20543;-50
2021/11/19 00:08:37;;;;;;;14.47;9.20;;;;;;;;;;4991224;28;20210;-50
2021/11/19 00:11:06;;;;;;;15.10;10.23;;;;;;;;;;4984178;28;20176;-50
2021/11/19 00:13:32;;;;;;;13.43;9.73;;;;;;;;;;4990835;28;20365;-51
2021/11/19 00:15:58;;;;;;;12.67;9.20;;;;;;;;;;4991717;28;20648;-50
2021/11/19 00:18:25;;;;;;;12.20;9.87;;;;;;;;;;5006045;28;20190;-50
2021/11/19 00:20:51;;;;;;;12.27;10.40;;;;;;;;;;5006647;28;20307;-49
2021/11/19 00:23:18;;;;;;;14.83;11.13;;;;;;;;;;4974790;28;20183;-51
2021/11/19 00:25:44;;;;;;;13.40;11.33;;;;;;;;;;4984065;28;20179;-50
2021/11/19 00:28:11;;;;;;;15.03;11.10;;;;;;;;;;4985525;28;20603;-50
2021/11/19 00:30:38;;;;;;;15.60;11.23;;;;;;;;;;4995767;28;20191;-50
2021/11/19 00:33:05;;;;;;;19.93;11.10;;;;;;;;;;4999083;28;20257;-51
2021/11/19 00:35:31;;;;;;;15.70;10.57;;;;;;;;;;5003258;28;20211;-49
2021/11/19 00:37:58;;;;;;;16.80;10.67;;;;;;;;;;5005108;28;20194;-49
2021/11/19 00:40:28;;;;;;;15.73;10.67;;;;;;;;;;5006493;28;20781;-50
2021/11/19 00:42:54;;;;;;;16.47;10.70;;;;;;;;;;4999227;28;20210;-50
2021/11/19 00:45:24;;;;;;;14.27;10.93;;;;;;;;;;4996972;28;20666;-50
2021/11/19 00:47:55;;;;;;;11.83;9.77;;;;;;;;;;5010398;28;20214;-50
2021/11/19 00:50:24;;;;;;;15.50;10.40;;;;;;;;;;5009504;28;20200;-51
2021/11/19 00:52:50;;;;;;;15.90;10.47;;;;;;;;;;4987496;28;20190;-50
2021/11/19 00:55:16;;;;;;;24.27;13.40;;;;;;;;;;5008033;28;20191;-51
2021/11/19 00:57:42;;;;;;;12.53;10.10;;;;;;;;;;4999431;28;20261;-50
2021/11/19 01:00:14;;;;;;;12.70;10.17;;;;;;;;;;5008809;28;20202;-50
2021/11/19 01:02:41;;;;;;;13.93;9.97;;;;;;;;;;4990694;28;20375;-49
2021/11/19 01:05:07;;;;;;;10.53;9.37;;;;;;;;;;4999485;28;20516;-51
2021/11/19 01:07:33;;;;;;;13.83;10.87;;;;;;;;;;5004976;28;20182;-51
2021/11/19 01:10:01;;;;;;;13.57;10.30;;;;;;;;;;5003388;28;20643;-51
2021/11/19 01:12:29;;;;;;;12.80;10.87;;;;;;;;;;5003759;28;20194;-54
2021/11/19 01:14:55;;;;;;;18.13;9.63;;;;;;;;;;5005577;28;20567;-49
2021/11/19 01:17:24;;;;;;;16.83;12.10;;;;;;;;;;4990786;28;20562;-50
2021/11/19 01:20:03;;;;;;;19.33;11.43;;;;;;;;;;5006112;28;20202;-49
2021/11/19 01:22:31;;;;;;;16.17;10.80;;;;;;;;;;5008045;28;20182;-49
2021/11/19 01:24:57;;;;;;;15.10;11.07;;;;;;;;;;5005899;28;20579;-49
2021/11/19 01:27:24;;;;;;;14.10;9.90;;;;;;;;;;5002174;28;20178;-50
2021/11/19 01:29:51;;;;;;;15.57;10.07;;;;;;;;;;4988442;28;20679;-49
2021/11/19 01:32:21;;;;;;;17.33;12.00;;;;;;;;;;5005424;28;20182;-50
2021/11/19 01:34:48;;;;;;;13.83;11.43;;;;;;;;;;5003127;28;20596;-49
2021/11/19 01:37:15;;;;;;;18.93;12.63;;;;;;;;;;5009075;28;20191;-49
2021/11/19 01:39:42;;;;;;;16.00;11.10;;;;;;;;;;4997978;28;20198;-49
2021/11/19 01:42:10;;;;;;;17.40;10.93;;;;;;;;;;5008810;28;20194;-49
2021/11/19 01:44:38;;;;;;;12.30;10.47;;;;;;;;;;5004220;28;20186;-49
2021/11/19 01:47:06;;;;;;;17.23;11.43;;;;;;;;;;5008082;28;20226;-49
2021/11/19 01:49:34;;;;;;;22.43;13.27;;;;;;;;;;4985275;28;20639;-49
2021/11/19 01:52:15;;;;;;;14.53;10.63;;;;;;;;;;4986084;28;20195;-51
2021/11/19 01:54:51;;;;;;;17.67;11.07;;;;;;;;;;5002092;28;20210;-49
2021/11/19 01:57:33;;;;;;;16.53;11.53;;;;;;;;;;5018241;28;20206;-51
2021/11/19 02:00:04;;;;;;;16.30;11.90;;;;;;;;;;5000878;28;20231;-49
2021/11/19 02:02:34;;;;;;;16.83;10.53;;;;;;;;;;5006676;28;20182;-50
2021/11/19 02:05:22;;;;;;;13.60;11.03;;;;;;;;;;4974759;28;20182;-49
2021/11/19 02:07:50;;;;;;;15.33;11.70;;;;;;;;;;5007216;28;20277;-49
2021/11/19 02:10:35;;;;;;;15.87;11.07;;;;;;;;;;5004607;28;20197;-49
2021/11/19 02:13:24;;;;;;;15.17;11.40;;;;;;;;;;4995776;28;20186;-49
2021/11/19 02:15:52;;;;;;;14.30;10.73;;;;;;;;;;5006239;28;20547;-51
2021/11/19 02:18:27;;;;;;;17.57;10.97;;;;;;;;;;5008184;28;20190;-50
2021/11/19 02:20:56;;;;;;;15.57;10.73;;;;;;;;;;4984640;28;20271;-50
2021/11/19 02:23:30;;;;;;;13.83;11.10;;;;;;;;;;5004646;28;20265;-50
2021/11/19 02:25:59;;;;;;;19.47;12.63;;;;;;;;;;5000048;28;20178;-51
2021/11/19 02:28:26;;;;;;;17.00;12.07;;;;;;;;;;5007896;28;20264;-50
2021/11/19 02:31:06;;;;;;;19.87;11.93;;;;;;;;;;5005858;28;20666;-51
2021/11/19 02:33:32;;;;;;;17.77;11.63;;;;;;;;;;4995047;28;20262;-51
2021/11/19 02:36:01;;;;;;;14.43;10.60;;;;;;;;;;4983344;28;20198;-51
2021/11/19 02:38:32;;;;;;;16.73;11.43;;;;;;;;;;5003770;28;20171;-51
2021/11/19 02:41:00;;;;;;;13.30;10.27;;;;;;;;;;4990221;28;20199;-50
2021/11/19 02:43:29;;;;;;;23.70;12.17;;;;;;;;;;5007257;28;20666;-50
2021/11/19 02:45:55;;;;;;;23.77;11.97;;;;;;;;;;4998528;28;20190;-50
2021/11/19 02:48:24;;;;;;;20.23;12.40;;;;;;;;;;5007538;28;20178;-51
2021/11/19 02:50:51;;;;;;;18.23;12.40;;;;;;;;;;5008404;28;20177;-51
2021/11/19 02:53:17;;;;;;;20.83;12.67;;;;;;;;;;5003125;28;20668;-51
2021/11/19 02:55:46;;;;;;;21.57;12.70;;;;;;;;;;4987979;28;20218;-52
2021/11/19 02:58:14;;;;;;;21.70;14.07;;;;;;;;;;5006874;28;20183;-51
2021/11/19 03:00:50;;;;;;;15.60;12.27;;;;;;;;;;5008329;28;20237;-53
2021/11/19 03:03:16;;;;;;;20.60;12.87;;;;;;;;;;5004271;28;20186;-49
2021/11/19 03:05:43;;;;;;;15.97;12.77;;;;;;;;;;5005881;28;20179;-51
2021/11/19 03:08:09;;;;;;;17.13;12.13;;;;;;;;;;4982939;28;20186;-51
2021/11/19 03:10:41;;;;;;;20.03;13.20;;;;;;;;;;4985196;28;20186;-50
2021/11/19 03:13:08;;;;;;;16.13;13.37;;;;;;;;;;4986436;28;20669;-50
2021/11/19 03:15:36;;;;;;;17.13;13.70;;;;;;;;;;5007520;28;20221;-51
2021/11/19 03:18:03;;;;;;;19.23;12.73;;;;;;;;;;5003693;28;20174;-51
2021/11/19 03:20:29;;;;;;;19.20;14.83;;;;;;;;;;5008830;28;20222;-53
2021/11/19 03:22:56;;;;;;;18.50;14.57;;;;;;;;;;4984469;28;20191;-52
2021/11/19 03:25:25;;;;;;;20.57;13.37;;;;;;;;;;5008758;28;20206;-51
2021/11/19 03:27:51;;;;;;;14.87;12.17;;;;;;;;;;5008414;28;20210;-49
2021/11/19 03:30:20;;;;;;;21.17;15.20;;;;;;;;;;5012331;28;20194;-50
2021/11/19 03:32:47;;;;;;;16.73;13.53;;;;;;;;;;5006776;28;20182;-50
2021/11/19 03:35:14;;;;;;;18.03;14.17;;;;;;;;;;4981577;28;20203;-51
2021/11/19 03:37:45;;;;;;;21.50;15.33;;;;;;;;;;5007931;28;20554;-52
2021/11/19 03:40:12;;;;;;;18.10;14.83;;;;;;;;;;4996148;28;20196;-50
2021/11/19 03:42:38;;;;;;;16.40;13.83;;;;;;;;;;5008963;28;20187;-51
2021/11/19 03:45:06;;;;;;;22.57;13.87;;;;;;;;;;5004325;28;20185;-50
2021/11/19 03:47:37;;;;;;;17.37;13.80;;;;;;;;;;5000266;28;20187;-50
2021/11/19 03:50:05;;;;;;;22.80;15.80;;;;;;;;;;5009639;28;20668;-49
2021/11/19 03:52:33;;;;;;;17.77;15.00;;;;;;;;;;5001352;28;20187;-49
2021/11/19 03:55:01;;;;;;;18.07;15.17;;;;;;;;;;5010108;28;20190;-49
2021/11/19 03:57:28;;;;;;;23.37;15.70;;;;;;;;;;5011539;28;20210;-50
2021/11/19 03:59:55;;;;;;;18.60;15.30;;;;;;;;;;5004959;28;20210;-50
2021/11/19 04:02:23;;;;;;;18.73;14.93;;;;;;;;;;4988986;28;20182;-50
2021/11/19 04:04:49;;;;;;;20.10;14.57;;;;;;;;;;4990594;28;20183;-52
2021/11/19 04:07:17;;;;;;;18.00;15.07;;;;;;;;;;4993892;28;20187;-51
2021/11/19 04:09:46;;;;;;;21.77;15.17;;;;;;;;;;5000523;28;20273;-50
2021/11/19 04:12:14;;;;;;;21.40;14.93;;;;;;;;;;5005902;28;20193;-51
2021/11/19 04:14:41;;;;;;;21.43;15.53;;;;;;;;;;5002701;28;20369;-52
2021/11/19 04:17:07;;;;;;;23.90;16.43;;;;;;;;;;5003715;28;20715;-51
2021/11/19 04:19:36;;;;;;;22.33;15.53;;;;;;;;;;4983961;28;20240;-50
2021/11/19 04:22:05;;;;;;;20.03;16.43;;;;;;;;;;4990396;28;20210;-50
2021/11/19 04:24:36;;;;;;;20.10;14.77;;;;;;;;;;5009282;28;20558;-50
2021/11/19 04:27:02;;;;;;;19.17;14.50;;;;;;;;;;4995603;28;20681;-51
2021/11/19 04:29:29;;;;;;;20.67;16.30;;;;;;;;;;4987271;28;20187;-50
2021/11/19 04:31:55;;;;;;;19.20;15.40;;;;;;;;;;5000229;28;20204;-51
2021/11/19 04:34:22;;;;;;;22.67;15.93;;;;;;;;;;4997233;28;20246;-50
2021/11/19 04:36:49;;;;;;;22.57;15.90;;;;;;;;;;4992051;28;20193;-51
2021/11/19 04:39:15;;;;;;;23.30;15.73;;;;;;;;;;4975035;28;20191;-51
2021/11/19 04:41:42;;;;;;;24.90;16.87;;;;;;;;;;4993336;28;20265;-50
2021/11/19 04:44:08;;;;;;;20.03;14.33;;;;;;;;;;5002647;28;20265;-50
2021/11/19 04:46:35;;;;;;;29.67;16.27;;;;;;;;;;5001217;28;20186;-49
2021/11/19 04:49:01;;;;;;;21.00;14.77;;;;;;;;;;4992539;28;20212;-51
2021/11/19 04:51:29;;;;;;;18.77;14.50;;;;;;;;;;4989667;28;20565;-51
2021/11/19 04:53:56;;;;;;;19.53;15.53;;;;;;;;;;4978531;28;20191;-51
2021/11/19 04:56:22;;;;;;;19.27;14.73;;;;;;;;;;4990788;28;20562;-50
2021/11/19 04:58:49;;;;;;;16.43;14.53;;;;;;;;;;4990677;28;20214;-50
2021/11/19 05:01:17;;;;;;;23.80;16.53;;;;;;;;;;5008434;28;20186;-53
2021/11/19 05:03:43;;;;;;;20.03;15.47;;;;;;;;;;5010133;28;20178;-50
2021/11/19 05:06:10;;;;;;;19.50;16.13;;;;;;;;;;5010087;28;20228;-50
2021/11/19 05:08:37;;;;;;;18.93;15.00;;;;;;;;;;5008072;28;20232;-49
2021/11/19 05:11:04;;;;;;;18.33;14.90;;;;;;;;;;4989513;28;20265;-51
2021/11/19 05:13:32;;;;;;;17.77;15.10;;;;;;;;;;4991292;28;20861;-51
2021/11/19 05:15:59;;;;;;;21.90;16.37;;;;;;;;;;4990998;28;20179;-51
2021/11/19 05:18:26;;;;;;;20.40;15.67;;;;;;;;;;4990660;28;20178;-50
2021/11/19 05:20:53;;;;;;;20.23;14.70;;;;;;;;;;4989591;28;20179;-52
2021/11/19 05:23:19;;;;;;;20.67;15.10;;;;;;;;;;5002636;28;20269;-50
2021/11/19 05:25:46;;;;;;;22.80;16.20;;;;;;;;;;4980097;28;20194;-51
2021/11/19 05:28:13;;;;;;;19.03;15.27;;;;;;;;;;4981670;28;20181;-50
2021/11/19 05:30:40;;;;;;;22.53;15.30;;;;;;;;;;5005815;28;20256;-50
2021/11/19 05:33:07;;;;;;;21.30;15.93;;;;;;;;;;4999002;28;20191;-52
2021/11/19 05:35:33;;;;;;;20.53;14.73;;;;;;;;;;5002972;28;20197;-51
2021/11/19 05:38:00;;;;;;;19.27;14.73;;;;;;;;;;4982125;28;20190;-50
2021/11/19 05:40:26;;;;;;;21.50;16.17;;;;;;;;;;5005131;28;20264;-52
2021/11/19 05:42:53;;;;;;;25.43;16.03;;;;;;;;;;5002599;28;20645;-52
2021/11/19 05:45:20;;;;;;;19.73;15.07;;;;;;;;;;5009305;28;20183;-51
2021/11/19 05:47:47;;;;;;;19.40;14.73;;;;;;;;;;5003578;28;20183;-52
2021/11/19 05:50:14;;;;;;;19.43;14.90;;;;;;;;;;4983981;28;20649;-51
2021/11/19 05:52:40;;;;;;;22.07;16.00;;;;;;;;;;4994142;28;20183;-52
2021/11/19 05:55:09;;;;;;;20.47;16.43;;;;;;;;;;4981795;28;20198;-51
2021/11/19 05:57:36;;;;;;;21.73;15.27;;;;;;;;;;5004697;28;20207;-52
2021/11/19 06:00:04;;;;;;;19.80;15.17;;;;;;;;;;5004451;28;20261;-51
2021/11/19 06:02:31;;;;;;;20.93;15.33;;;;;;;;;;5006386;28;20183;-51
2021/11/19 06:04:58;;;;;;;20.20;15.97;;;;;;;;;;4987063;28;20178;-52
2021/11/19 06:07:25;;;;;;;20.17;16.23;;;;;;;;;;5007450;28;20268;-51
2021/11/19 06:09:52;;;;;;;19.77;14.87;;;;;;;;;;5006864;28;20186;-51
2021/11/19 06:12:30;;;;;;;19.77;16.17;;;;;;;;;;4975588;28;20647;-51
2021/11/19 06:14:58;;;;;;;20.23;15.70;;;;;;;;;;5006914;28;20257;-51
2021/11/19 06:17:26;;;;;;;19.73;15.47;;;;;;;;;;4980648;28;20191;-52
2021/11/19 06:19:54;;;;;;;20.67;16.07;;;;;;;;;;5004388;28;20213;-51
2021/11/19 06:22:25;;;;;;;22.03;16.77;;;;;;;;;;4983221;28;20201;-52
2021/11/19 06:24:53;;;;;;;20.37;16.23;;;;;;;;;;4985486;28;20174;-52
2021/11/19 06:27:24;;;;;;;20.00;15.17;;;;;;;;;;5003624;28;20274;-51
2021/11/19 06:29:51;;;;;;;18.43;15.43;;;;;;;;;;4988337;28;20209;-52
2021/11/19 06:32:17;;;;;;;22.60;17.73;;;;;;;;;;5004643;28;20186;-52
2021/11/19 06:34:43;;;;;;;24.57;16.57;;;;;;;;;;4962719;28;20674;-50
2021/11/19 06:37:10;;;;;;;17.60;15.27;;;;;;;;;;5007050;28;20277;-50
2021/11/19 06:39:41;;;;;;;20.07;15.73;;;;;;;;;;4984670;28;20202;-50
2021/11/19 06:42:07;;;;;;;20.90;16.20;;;;;;;;;;4987572;28;20270;-51
2021/11/19 06:44:33;;;;;;;18.63;15.13;;;;;;;;;;4998992;28;20186;-50
2021/11/19 06:46:59;;;;;;;21.10;15.10;;;;;;;;;;5000708;28;20236;-50
2021/11/19 06:49:26;;;;;;;20.17;15.07;;;;;;;;;;4983773;28;20698;-50
2021/11/19 06:51:52;;;;;;;19.00;15.23;;;;;;;;;;4980420;28;20183;-50
2021/11/19 06:54:19;;;;;;;19.67;16.30;;;;;;;;;;4989953;28;20356;-50
2021/11/19 06:56:45;;;;;;;18.30;15.20;;;;;;;;;;4990302;28;20225;-51
2021/11/19 06:59:23;;;;;;;26.23;18.20;;;;;;;;;;5004395;28;20198;-49
2021/11/19 07:01:50;;;;;;;19.33;16.63;;;;;;;;;;4989529;28;20212;-50
2021/11/19 07:04:16;;;;;;;20.97;15.87;;;;;;;;;;4991599;28;20260;-50
2021/11/19 07:06:42;;;;;;;21.10;16.63;;;;;;;;;;5006140;28;20179;-50
2021/11/19 07:09:09;;;;;;;17.47;14.60;;;;;;;;;;5000517;28;20191;-51
2021/11/19 07:11:36;;;;;;;20.10;15.57;;;;;;;;;;5009802;28;20653;-51
2021/11/19 07:14:02;;;;;;;21.50;16.30;;;;;;;;;;4992864;28;20607;-50
2021/11/19 07:16:29;;;;;;;18.60;15.23;;;;;;;;;;5008327;28;20289;-51
2021/11/19 07:18:59;;;;;;;27.30;19.10;;;;;;;;;;5008013;28;20696;-50
2021/11/19 07:21:26;;;;;;;25.20;19.07;;;;;;;;;;5000116;28;20691;-49
2021/11/19 07:23:52;;;;;;;26.23;20.33;;;;;;;;;;5007406;28;20186;-50
2021/11/19 07:26:19;;;;;;;28.07;20.97;;;;;;;;;;4987556;28;20664;-51
2021/11/19 07:28:46;;;;;;;30.90;21.00;;;;;;;;;;5010703;28;20221;-50
2021/11/19 07:31:14;;;;;;;32.30;22.37;;;;;;;;;;5011924;28;20183;-49
2021/11/19 07:33:40;;;;;;;30.37;22.20;;;;;;;;;;5004640;28;20183;-51
2021/11/19 07:36:08;;;;;;;29.00;20.83;;;;;;;;;;4992211;28;20189;-51
2021/11/19 07:38:35;;;;;;;30.60;20.80;;;;;;;;;;4988491;28;20191;-51
2021/11/19 07:41:02;;;;;;;28.13;21.10;;;;;;;;;;4989289;28;20622;-52
2021/11/19 07:43:30;;;;;;;33.87;21.70;;;;;;;;;;5008884;28;20197;-50
2021/11/19 07:45:57;;;;;;;33.00;22.90;;;;;;;;;;4983863;28;20184;-52
2021/11/19 07:48:27;;;;;;;32.83;21.40;;;;;;;;;;4992113;28;20185;-51
2021/11/19 07:50:54;;;;;;;29.97;21.80;;;;;;;;;;4988023;28;20286;-51
2021/11/19 07:53:21;;;;;;;32.30;21.90;;;;;;;;;;5001064;28;20183;-51
2021/11/19 07:55:48;;;;;;;31.97;21.33;;;;;;;;;;5006325;28;20202;-52
2021/11/19 07:58:15;;;;;;;31.37;22.50;;;;;;;;;;4981691;28;20190;-52
2021/11/19 08:00:42;;;;;;;27.37;20.43;;;;;;;;;;5008026;28;20320;-52
2021/11/19 08:03:08;;;;;;;29.33;19.47;;;;;;;;;;5005305;28;20240;-52
2021/11/19 08:05:35;;;;;;;26.67;20.30;;;;;;;;;;5002712;28;20170;-52
2021/11/19 08:08:01;;;;;;;27.97;20.90;;;;;;;;;;5003357;28;20183;-53
2021/11/19 08:10:27;;;;;;;28.97;20.23;;;;;;;;;;5010245;28;20179;-51
2021/11/19 08:12:53;;;;;;;28.23;20.03;;;;;;;;;;5007715;28;20182;-52
2021/11/19 08:15:24;;;;;;;28.07;20.17;;;;;;;;;;5003006;28;20187;-51
2021/11/19 08:17:52;;;;;;;31.23;21.60;;;;;;;;;;5001419;28;20175;-51
2021/11/19 08:20:20;;;;;;;29.77;20.67;;;;;;;;;;4990074;28;20207;-51
2021/11/19 08:22:46;;;;;;;31.43;20.73;;;;;;;;;;4982501;28;20217;-51
2021/11/19 08:25:13;;;;;;;30.63;21.37;;;;;;;;;;4990823;28;20182;-52
2021/11/19 08:27:41;;;;;;;32.97;20.50;;;;;;;;;;4977642;28;20196;-53
2021/11/19 08:30:12;;;;;;;31.57;21.90;;;;;;;;;;5000756;28;20179;-52
2021/11/19 08:32:39;;;;;;;29.73;21.87;;;;;;;;;;5003282;28;20268;-51
2021/11/19 08:35:05;;;;;;;28.50;20.50;;;;;;;;;;4987069;28;20210;-52
2021/11/19 08:37:34;;;;;;;30.47;22.37;;;;;;;;;;5007594;28;20186;-51
2021/11/19 08:40:01;;;;;;;29.07;20.33;;;;;;;;;;5005079;28;20212;-52
2021/11/19 08:42:27;;;;;;;32.37;21.17;;;;;;;;;;5003387;28;20260;-52
2021/11/19 08:44:54;;;;;;;30.17;20.60;;;;;;;;;;5010553;28;20647;-52
2021/11/19 08:47:21;;;;;;;32.33;20.57;;;;;;;;;;5006660;28;20690;-53
2021/11/19 08:49:47;;;;;;;35.35;25.08;;;;;;;;;;5001222;28;20523;-52
2021/11/19 08:52:15;;;;;;;31.90;21.97;;;;;;;;;;5004385;28;20217;-52
2021/11/19 08:54:41;;;;;;;34.80;22.07;;;;;;;;;;4987809;28;20183;-52
2021/11/19 08:57:10;;;;;;;31.90;21.90;;;;;;;;;;5006045;28;20198;-51
2021/11/19 08:59:38;;;;;;;27.07;20.73;;;;;;;;;;5008563;28;20221;-52
2021/11/19 09:02:05;;;;;;;30.90;22.23;;;;;;;;;;4991582;28;20218;-51
2021/11/19 09:04:32;;;;;;;23.47;19.30;;;;;;;;;;5006076;28;20187;-51
2021/11/19 09:06:58;;;;;;;20.90;17.63;;;;;;;;;;5002441;28;20688;-51
2021/11/19 09:09:25;;;;;;;22.50;16.60;;;;;;;;;;5006617;28;20191;-51
2021/11/19 09:11:51;;;;;;;18.83;16.30;;;;;;;;;;5008250;28;20222;-50
2021/11/19 09:14:18;;;;;;;19.37;16.67;;;;;;;;;;4991546;28;20778;-51
2021/11/19 09:16:55;;;;;;;19.50;16.17;;;;;;;;;;5000740;28;20171;-51
2021/11/19 09:19:33;;;;;;;18.67;16.53;;;;;;;;;;5008754;28;20238;-52
2021/11/19 09:22:03;;;;;;;20.27;15.60;;;;;;;;;;4994542;28;20182;-50
2021/11/19 09:24:31;;;;;;;19.10;16.40;;;;;;;;;;5000582;28;20179;-51
2021/11/19 09:27:02;;;;;;;19.07;15.60;;;;;;;;;;5000146;28;20187;-50
2021/11/19 09:29:28;;;;;;;20.13;15.80;;;;;;;;;;5000628;28;20258;-49
2021/11/19 09:31:55;;;;;;;18.67;15.80;;;;;;;;;;5005197;28;20190;-50
2021/11/19 09:34:22;;;;;;;18.37;16.33;;;;;;;;;;4987273;28;20233;-52
2021/11/19 09:36:48;;;;;;;17.07;14.87;;;;;;;;;;4999694;28;20183;-50
2021/11/19 09:39:16;;;;;;;18.03;15.00;;;;;;;;;;4998059;28;20584;-50
2021/11/19 09:41:45;;;;;;;21.40;15.53;;;;;;;;;;4997396;28;20174;-50
2021/11/19 09:44:34;;;;;;;17.13;15.17;;;;;;;;;;5004448;28;20548;-51
2021/11/19 09:47:19;;;;;;;21.40;19.25;;;;;;;;;;4983895;28;20554;-51
2021/11/19 09:50:03;;;;;;;20.70;17.53;;;;;;;;;;5007016;28;20186;-49
2021/11/19 09:52:35;;;;;;;17.73;15.90;;;;;;;;;;5003791;28;20186;-50
2021/11/19 09:55:14;;;;;;;20.27;16.40;;;;;;;;;;4975723;28;20277;-50
2021/11/19 09:58:03;;;;;;;18.80;16.77;;;;;;;;;;4987994;28;20658;-50
2021/11/19 10:00:54;;;;;;;20.27;17.23;;;;;;;;;;4967033;28;20235;-49
2021/11/19 10:03:31;;;;;;;22.03;18.10;;;;;;;;;;5002969;28;20189;-50
2021/11/19 10:06:06;;;;;;;22.47;17.87;;;;;;;;;;4982143;28;20281;-50
2021/11/19 10:08:32;;;;;;;;;;;;;;;;;;4991969;28;20408;-50
2021/11/19 10:10:58;;;;;;;;;;;;;;;;;;5009929;28;19953;-51
2021/11/19 10:13:24;;;;;;;;;;;;;;;;;;5003640;28;19914;-50
2021/11/19 10:15:50;;;;;;;;;;;;;;;;;;4997565;28;20016;-49
2021/11/19 10:18:17;;;;;;;;;;;;;;;;;;5006713;28;19921;-49
2021/11/19 10:20:43;;;;;;;;;;;;;;;;;;4989180;28;19956;-50
2021/11/19 10:23:09;;;;;;;;;;;;;;;;;;5006064;28;20384;-48
2021/11/19 10:25:35;;;;;;;;;;;;;;;;;;5009966;28;19943;-50
2021/11/19 10:28:02;;;;;;;;;;;;;;;;;;4989545;28;20387;-52
2021/11/19 10:30:28;;;;;;;;;;;;;;;;;;5002838;28;19909;-50
2021/11/19 10:32:54;;;;;;;;;;;;;;;;;;4999612;28;20431;-49
2021/11/19 10:35:20;;;;;;;;;;;;;;;;;;4991489;28;19909;-50
2021/11/19 10:37:47;;;;;;;;;;;;;;;;;;5009500;28;19933;-49
2021/11/19 10:40:13;;;;;;;;;;;;;;;;;;5010226;28;19913;-50
2021/11/19 10:42:40;;;;;;;;;;;;;;;;;;5007700;28;20340;-51
2021/11/19 10:45:06;;;;;;;;;;;;;;;;;;4999681;28;19930;-50
2021/11/19 10:47:33;;;;;;;;;;;;;;;;;;5008475;28;20399;-51
2021/11/19 10:49:59;;;;;;;;;;;;;;;;;;5001253;28;19913;-50
2021/11/19 10:52:25;;;;;;;;;;;;;;;;;;5003777;28;20268;-50
2021/11/19 10:54:51;;;;;;;;;;;;;;;;;;5000112;28;19913;-51
2021/11/19 10:57:18;;;;;;;;;;;;;;;;;;5008525;28;19956;-51
2021/11/19 10:59:44;;;;;;;;;;;;;;;;;;5007116;28;19913;-51
2021/11/19 11:02:14;;;;;;;;;;;;;;;;;;5000848;28;19995;-50
2021/11/19 11:04:51;;;;;;;;;;;;;;;;;;4988238;28;19913;-50
2021/11/19 11:07:19;;;;;;;;;;;;;;;;;;4978976;28;19959;-50
2021/11/19 11:09:45;;;;;;;;;;;;;;;;;;5009580;28;20460;-51
2021/11/19 11:12:11;;;;;;;;;;;;;;;;;;5001811;28;19916;-50
2021/11/19 11:14:37;;;;;;;;;;;;;;;;;;5009116;28;19936;-51
2021/11/19 11:17:03;;;;;;;;;;;;;;;;;;5001504;28;19913;-51
2021/11/19 11:19:29;;;;;;;;;;;;;;;;;;5009750;28;19953;-51
2021/11/19 11:21:55;;;;;;;;;;;;;;;;;;4988679;28;19956;-50
2021/11/19 11:24:22;;;;;;;;;;;;;;;;;;5007962;28;19913;-50
2021/11/19 11:26:48;;;;;;;;;;;;;;;;;;5006064;28;20381;-51
2021/11/19 11:29:14;;;;;;;;;;;;;;;;;;5009056;28;20380;-52
2021/11/19 11:31:40;;;;;;;;;;;;;;;;;;5004915;28;19917;-51
2021/11/19 11:34:06;;;;;;;;;;;;;;;;;;5007137;28;19952;-50
2021/11/19 11:36:32;;;;;;;;;;;;;;;;;;5004737;28;19949;-51
2021/11/19 11:38:58;;;;;;;;;;;;;;;;;;4990508;28;19913;-52
2021/11/19 11:41:24;;;;;;;;;;;;;;;;;;5002832;28;19909;-51
2021/11/19 11:43:50;;;;;;;;;;;;;;;;;;4998734;28;19914;-51
2021/11/19 11:46:15;;;;;;;;;;;;;;;;;;5006057;28;19953;-51
2021/11/19 11:48:41;;;;;;;;;;;;;;;;;;5006021;28;19948;-51
2021/11/19 11:51:07;;;;;;;;;;;;;;;;;;4976269;28;20024;-51
2021/11/19 11:53:33;;;;;;;;;;;;;;;;;;5002970;28;19964;-51
2021/11/19 11:55:59;;;;;;;;;;;;;;;;;;4996740;28;19968;-51
2021/11/19 11:58:25;;;;;;;;;;;;;;;;;;4999452;28;19914;-51
2021/11/19 12:00:52;;;;;;;;;;;;;;;;;;4996621;28;20047;-52
2021/11/19 12:03:18;;;;;;;35.50;26.50;;;;;;;;;;4977241;28;21393;-53
2021/11/19 12:05:54;;;;;;;41.40;26.60;;;;;;;;;;4965826;28;20240;-53
2021/11/19 12:08:39;;;;;;;41.03;26.93;;;;;;;;;;5006421;28;20193;-52
2021/11/19 12:11:23;;;;;;;42.00;27.73;;;;;;;;;;5009871;28;20553;-52
2021/11/19 12:13:59;;;;;;;38.60;26.67;;;;;;;;;;4979543;28;20210;-52
2021/11/19 12:16:42;;;;;;;41.10;27.27;;;;;;;;;;5011815;28;20661;-52
2021/11/19 12:19:08;;;;;;;37.83;26.03;;;;;;;;;;5006507;28;20194;-54
2021/11/19 12:21:41;;;;;;;41.77;26.63;;;;;;;;;;5009936;28;20175;-51
2021/11/19 12:24:26;;;;;;;45.43;28.83;;;;;;;;;;4993006;28;20712;-52
2021/11/19 12:27:12;;;;;;;37.33;27.77;;;;;;;;;;5001609;28;20182;-52
2021/11/19 12:29:47;;;;;;;38.27;26.37;;;;;;;;;;5004918;28;20186;-52
2021/11/19 12:32:16;;;;;;;45.17;29.90;;;;;;;;;;5002489;28;20187;-53
2021/11/19 12:34:48;;;;;;;46.13;30.40;;;;;;;;;;4989221;28;20190;-53
2021/11/19 12:37:25;;;;;;;38.20;27.93;;;;;;;;;;4989344;28;20196;-53
2021/11/19 12:39:52;;;;;;;43.13;28.93;;;;;;;;;;5005184;28;20229;-52
2021/11/19 12:42:21;;;;;;;41.43;28.73;;;;;;;;;;5002519;28;20191;-53
2021/11/19 12:44:50;;;;;;;37.33;26.23;;;;;;;;;;4987224;28;20175;-51
2021/11/19 12:47:16;;;;;;;34.30;25.60;;;;;;;;;;5010736;28;20248;-52
2021/11/19 12:49:51;;;;;;;37.93;24.30;;;;;;;;;;5009051;28;20592;-52
2021/11/19 12:52:21;;;;;;;36.40;24.07;;;;;;;;;;5008212;28;20687;-52
2021/11/19 12:54:50;;;;;;;35.57;24.20;;;;;;;;;;4995550;28;20179;-52
2021/11/19 12:57:26;;;;;;;30.93;24.03;;;;;;;;;;4987974;28;20214;-51
2021/11/19 13:00:03;;;;;;;33.47;23.60;;;;;;;;;;5002652;28;20642;-52
2021/11/19 13:02:43;;;;;;;34.13;24.43;;;;;;;;;;4997742;28;20205;-53
2021/11/19 13:05:27;;;;;;;30.90;23.43;;;;;;;;;;5005733;28;20217;-53
2021/11/19 13:08:00;;;;;;;31.47;23.23;;;;;;;;;;5009897;28;20174;-52
2021/11/19 13:10:26;;;;;;;30.03;21.37;;;;;;;;;;5009765;28;20215;-52
2021/11/19 13:13:05;;;;;;;34.87;22.47;;;;;;;;;;4987436;28;20189;-52
2021/11/19 13:15:35;;;;;;;31.67;23.73;;;;;;;;;;4999815;28;20198;-52
2021/11/19 13:18:10;;;;;;;28.57;22.07;;;;;;;;;;4973992;28;20189;-54
2021/11/19 13:20:48;;;;;;;34.17;22.50;;;;;;;;;;4998038;28;20389;-53
2021/11/19 13:23:37;;;;;;;27.00;20.77;;;;;;;;;;4982650;28;20625;-54
2021/11/19 13:26:13;;;;;;;29.27;20.93;;;;;;;;;;5004331;28;20179;-51
2021/11/19 13:28:49;;;;;;;30.87;20.40;;;;;;;;;;4991123;28;20668;-53
2021/11/19 13:31:21;;;;;;;28.47;21.70;;;;;;;;;;4996679;28;20623;-55
2021/11/19 13:34:08;;;;;;;29.80;23.95;;;;;;;;;;4977933;28;20440;-51
2021/11/19 13:36:38;;;;;;;31.37;21.90;;;;;;;;;;4999339;28;20591;-51
2021/11/19 13:39:14;;;;;;;29.37;21.10;;;;;;;;;;4980493;28;20534;-51
2021/11/19 13:41:42;;;;;;;29.47;22.07;;;;;;;;;;5001519;28;20218;-52
2021/11/19 13:44:08;;;;;;;31.97;22.20;;;;;;;;;;4998852;28;20556;-51
2021/11/19 13:46:41;;;;;;;29.60;23.17;;;;;;;;;;4986896;28;20341;-51
2021/11/19 13:49:17;;;;;;;28.17;21.50;;;;;;;;;;4989367;28;20170;-51
2021/11/19 13:51:43;;;;;;;27.73;21.40;;;;;;;;;;5006674;28;20269;-52
2021/11/19 13:54:20;;;;;;;28.37;21.33;;;;;;;;;;4993594;28;20189;-51
2021/11/19 13:56:48;;;;;;;33.10;22.43;;;;;;;;;;4973154;28;20203;-51
2021/11/19 13:59:29;;;;;;;29.50;21.77;;;;;;;;;;4996444;28;20272;-52
2021/11/19 14:02:04;;;;;;;28.63;21.47;;;;;;;;;;5008784;28;20171;-53
2021/11/19 14:04:50;;;;;;;29.30;20.20;;;;;;;;;;4998594;28;20268;-50
2021/11/19 14:07:18;;;;;;;31.67;23.47;;;;;;;;;;5004478;28;20175;-52
2021/11/19 14:09:55;;;;;;;30.97;20.70;;;;;;;;;;4983985;28;20193;-54
2021/11/19 14:12:30;;;;;;;38.77;22.33;;;;;;;;;;4985232;28;20277;-51
2021/11/19 14:15:24;;;;;;;32.60;22.77;;;;;;;;;;4989665;28;20241;-52
2021/11/19 14:17:52;;;;;;;30.27;21.57;;;;;;;;;;4996132;28;20222;-52
2021/11/19 14:23:22;;;;;;;29.70;22.13;;;;;;;;;;5003857;28;20257;-54
2021/11/19 14:25:50;;;;;;;31.13;21.33;;;;;;;;;;5004515;28;20186;-53
2021/11/19 14:28:24;;;;;;;29.63;21.70;;;;;;;;;;5002726;28;20202;-53
2021/11/19 14:30:51;;;;;;;26.30;19.63;;;;;;;;;;4983856;28;20273;-53
2021/11/19 14:33:17;;;;;;;28.43;21.13;;;;;;;;;;4986543;28;20208;-53
2021/11/19 14:35:46;;;;;;;25.23;19.50;;;;;;;;;;5005379;28;20181;-52
2021/11/19 14:38:40;;;;;;;24.40;20.47;;;;;;;;;;4978918;28;20190;-53
2021/11/19 14:41:16;;;;;;;23.57;19.00;;;;;;;;;;4999407;28;20241;-54
2021/11/19 14:43:44;;;;;;;27.23;20.83;;;;;;;;;;4988352;28;20181;-52
2021/11/19 14:46:15;;;;;;;29.20;19.43;;;;;;;;;;4984758;28;20178;-53
2021/11/19 14:48:51;;;;;;;24.33;19.23;;;;;;;;;;5006266;28;20544;-51